createdAt,value
2019-02-28T00:04:31.899Z,6.73
2019-02-28T00:06:58.943Z,6.13
2019-02-28T00:09:27.633Z,6.93
2019-02-28T00:11:56.291Z,6.20
2019-02-28T00:14:27.721Z,5.30
2019-02-28T00:16:55.473Z,5.80
2019-02-28T00:19:24.604Z,5.07
2019-02-28T00:21:54.572Z,5.90
2019-02-28T00:24:23.181Z,4.40
2019-02-28T00:29:39.596Z,4.97
2019-02-28T00:32:08.306Z,4.77
2019-02-28T00:34:39.307Z,4.77
2019-02-28T00:37:07.470Z,6.17
2019-02-28T00:39:36.122Z,4.63
2019-02-28T00:42:04.941Z,4.73
2019-02-28T00:44:33.609Z,4.67
2019-02-28T00:47:02.304Z,6.03
2019-02-28T00:49:30.945Z,4.90
2019-02-28T00:54:34.050Z,5.87
2019-02-28T00:57:02.726Z,4.97
2019-02-28T00:59:31.873Z,5.00
2019-02-28T01:02:02.071Z,5.30
2019-02-28T01:04:30.933Z,4.90
2019-02-28T01:09:47.281Z,5.20
2019-02-28T01:12:19.332Z,6.07
2019-02-28T01:14:46.412Z,4.93
2019-02-28T01:17:15.109Z,4.90
2019-02-28T01:19:43.820Z,5.47
2019-02-28T01:22:12.602Z,5.27
2019-02-28T01:25:21.134Z,4.37
2019-02-28T01:27:52.435Z,5.97
2019-02-28T01:30:20.329Z,5.83
2019-02-28T01:32:50.927Z,5.40
2019-02-28T01:35:19.407Z,4.80
2019-02-28T01:37:48.116Z,5.23
2019-02-28T01:40:16.782Z,5.50
2019-02-28T01:42:45.442Z,5.47
2019-02-28T01:45:53.925Z,5.77
2019-02-28T01:48:23.672Z,4.53
2019-02-28T01:50:53.116Z,5.07
2019-02-28T01:53:21.881Z,5.33
2019-02-28T01:56:09.727Z,6.53
2019-02-28T01:58:38.367Z,4.57
2019-02-28T02:01:07.189Z,4.20
2019-02-28T02:03:35.812Z,4.43
2019-02-28T02:06:04.525Z,5.80
2019-02-28T02:08:33.225Z,4.93
2019-02-28T02:11:02.070Z,5.10
2019-02-28T02:13:49.838Z,4.87
2019-02-28T04:29:21.924Z,5.20
2019-02-28T04:31:51.427Z,5.80
2019-02-28T04:34:21.066Z,5.50
2019-02-28T04:36:49.770Z,5.87
2019-02-28T04:39:18.457Z,5.60
2019-02-28T04:41:47.111Z,5.80
2019-02-28T04:44:18.248Z,7.50
2019-02-28T04:46:46.252Z,5.67
2019-02-28T04:49:34.210Z,6.40
2019-02-28T04:52:22.120Z,5.33
2019-02-28T04:54:50.783Z,5.50
2019-02-28T04:57:20.687Z,5.07
2019-02-28T04:59:49.868Z,5.23
2019-02-28T05:02:19.922Z,5.87
2019-02-28T05:04:48.936Z,5.93
2019-02-28T05:07:17.559Z,5.93
2019-02-28T05:09:48.099Z,5.37
2019-02-28T05:15:44.054Z,6.27
2019-02-28T05:18:32.053Z,4.87
2019-02-28T05:21:00.845Z,4.57
2019-02-28T05:23:29.605Z,4.63
2019-02-28T05:25:58.335Z,4.93
2019-02-28T05:28:46.216Z,5.07
2019-02-28T05:31:15.064Z,5.53
2019-02-28T05:33:43.799Z,7.80
2019-02-28T05:39:00.058Z,5.40
2019-02-28T05:41:28.623Z,5.87
2019-02-28T05:43:57.367Z,7.30
2019-02-28T05:46:45.143Z,6.40
2019-02-28T05:49:13.837Z,4.80
2019-02-28T05:52:01.787Z,5.13
2019-02-28T05:54:50.315Z,4.97
2019-02-28T06:00:37.017Z,4.33
2019-02-28T06:03:05.504Z,4.80
2019-02-28T06:05:34.271Z,5.30
2019-02-28T06:08:03.616Z,5.03
2019-02-28T06:10:33.431Z,5.53
2019-02-28T06:15:56.997Z,5.40
2019-02-28T06:18:31.953Z,3.77
2019-02-28T06:21:16.029Z,5.13
2019-02-28T06:23:44.670Z,4.50
2019-02-28T06:26:13.355Z,4.20
2019-02-28T06:28:42.034Z,4.43
2019-02-28T06:31:14.240Z,4.53
2019-02-28T06:33:41.141Z,4.70
2019-02-28T06:39:37.617Z,4.40
2019-02-28T06:42:25.586Z,4.03
2019-02-28T06:44:54.236Z,6.70
2019-02-28T06:47:22.926Z,5.77
2019-02-28T06:49:51.598Z,4.97
2019-02-28T06:52:22.279Z,4.83
2019-02-28T06:54:50.636Z,4.73
2019-02-28T06:57:19.395Z,4.80
2019-02-28T07:05:30.713Z,4.60
2019-02-28T07:07:59.388Z,5.13
2019-02-28T07:10:28.051Z,5.40
2019-02-28T07:12:56.652Z,4.47
2019-02-28T07:15:25.547Z,4.67
2019-02-28T07:18:14.237Z,5.57
2019-02-28T07:23:53.332Z,4.33
2019-02-28T07:26:42.021Z,5.80
2019-02-28T07:29:12.125Z,4.87
2019-02-28T07:31:42.275Z,5.00
2019-02-28T07:34:10.965Z,4.97
2019-02-28T07:36:41.515Z,4.53
2019-02-28T07:39:10.025Z,4.93
2019-02-28T07:41:38.579Z,6.30
2019-02-28T07:44:07.340Z,4.23
2019-02-28T07:46:38.726Z,4.83
2019-02-28T07:49:50.064Z,4.30
2019-02-28T07:52:18.233Z,4.30
2019-02-28T07:54:47.592Z,4.93
2019-02-28T07:57:17.990Z,4.50
2019-02-28T07:59:47.721Z,4.50
2019-02-28T08:02:16.382Z,4.70
2019-02-28T08:04:45.145Z,4.87
2019-02-28T08:07:14.697Z,5.20
2019-02-28T08:09:44.491Z,4.47
2019-02-28T08:12:33.038Z,5.60
2019-02-28T08:15:22.788Z,5.07
2019-02-28T08:18:32.325Z,4.80
2019-02-28T08:21:01.160Z,6.27
2019-02-28T08:23:31.296Z,4.47
2019-02-28T08:26:00.164Z,4.30
2019-02-28T08:28:29.587Z,7.07
2019-02-28T08:30:59.203Z,4.73
2019-02-28T08:34:07.998Z,5.67
2019-02-28T08:36:36.686Z,5.67
2019-02-28T08:39:27.070Z,5.47
2019-02-28T08:42:03.046Z,4.63
2019-02-28T08:44:26.254Z,5.30
2019-02-28T08:46:54.970Z,5.57
2019-02-28T08:49:23.689Z,5.67
2019-02-28T08:51:52.283Z,6.40
2019-02-28T08:54:26.320Z,6.43
2019-02-28T08:57:13.337Z,6.50
2019-02-28T09:02:18.269Z,7.20
2019-02-28T09:04:50.849Z,5.97
2019-02-28T09:07:18.265Z,5.17
2019-02-28T09:09:46.963Z,6.17
2019-02-28T09:12:15.722Z,6.10
2019-02-28T09:14:44.487Z,6.17
2019-02-28T09:17:15.915Z,5.97
2019-02-28T09:22:19.730Z,7.97
2019-02-28T09:24:48.318Z,7.00
2019-02-28T09:27:17.018Z,6.53
2019-02-28T09:30:26.607Z,7.17
2019-02-28T09:33:19.309Z,6.73
2019-02-28T09:35:47.047Z,7.23
2019-02-28T09:38:15.741Z,7.17
2019-02-28T09:46:15.697Z,6.20
2019-02-28T09:54:29.025Z,7.67
2019-02-28T09:56:57.786Z,7.90
2019-02-28T09:59:26.552Z,7.13
2019-02-28T10:02:01.324Z,8.23
2019-02-28T10:04:27.363Z,8.30
2019-02-28T10:06:56.879Z,8.07
2019-02-28T10:09:26.309Z,7.53
2019-02-28T10:11:55.049Z,7.63
2019-02-28T10:14:25.754Z,7.73
2019-02-28T10:16:54.156Z,8.73
2019-02-28T10:19:23.802Z,7.90
2019-02-28T10:21:53.347Z,9.07
2019-02-28T10:24:22.087Z,8.17
2019-02-28T10:26:51.442Z,8.83
2019-02-28T10:29:21.285Z,9.00
2019-02-28T10:31:49.985Z,8.53
2019-02-28T10:34:18.709Z,8.87
2019-02-28T10:36:47.969Z,9.23
2019-02-28T10:39:17.932Z,7.80
2019-02-28T10:41:46.620Z,8.67
2019-02-28T10:44:15.328Z,6.93
2019-02-28T10:46:43.983Z,8.73
2019-02-28T10:49:32.035Z,8.20
2019-02-28T10:52:00.830Z,7.77
2019-02-28T10:54:29.619Z,9.17
2019-02-28T10:56:58.284Z,9.00
2019-02-28T10:59:27.079Z,9.67
2019-02-28T11:01:55.919Z,9.03
2019-02-28T11:07:53.326Z,9.40
2019-02-28T11:11:01.762Z,10.87
2019-02-28T11:13:31.976Z,8.67
2019-02-28T11:16:00.974Z,8.43
2019-02-28T11:18:29.751Z,8.93
2019-02-28T11:20:59.336Z,9.20
2019-02-28T11:23:28.807Z,9.63
2019-02-28T11:28:52.072Z,9.50
2019-02-28T11:31:20.843Z,9.33
2019-02-28T11:33:49.637Z,8.83
2019-02-28T11:36:18.274Z,8.90
2019-02-28T11:38:47.050Z,9.47
2019-02-28T11:41:18.711Z,11.23
2019-02-28T11:43:46.131Z,10.20
2019-02-28T11:49:09.681Z,10.37
2019-02-28T11:51:38.401Z,10.23
2019-02-28T11:54:07.223Z,10.40
2019-02-28T11:56:35.957Z,12.00
2019-02-28T11:59:04.924Z,11.23
2019-02-28T12:01:33.607Z,10.53
2019-02-28T12:04:02.376Z,10.50
2019-02-28T12:06:30.991Z,10.40
2019-02-28T12:11:47.274Z,9.07
2019-02-28T12:14:16.060Z,11.10
2019-02-28T12:16:44.821Z,9.57
2019-02-28T12:19:15.914Z,8.67
2019-02-28T12:21:44.043Z,9.40
2019-02-28T12:24:12.728Z,8.17
2019-02-28T12:26:41.414Z,8.90
2019-02-28T12:29:12.869Z,7.83
2019-02-28T12:31:40.499Z,8.83
2019-02-28T12:34:09.249Z,8.93
2019-02-28T12:36:37.879Z,7.63
2019-02-28T12:39:46.360Z,7.83
2019-02-28T12:42:15.071Z,7.33
2019-02-28T12:44:46.239Z,8.23
2019-02-28T12:47:14.289Z,8.03
2019-02-28T12:49:42.980Z,8.23
2019-02-28T12:52:14.602Z,7.50
2019-02-28T12:54:42.062Z,7.30
2019-02-28T12:57:10.710Z,6.83
2019-02-28T12:59:41.857Z,7.23
2019-02-28T13:02:09.979Z,6.87
2019-02-28T13:04:38.686Z,7.00
2019-02-28T13:07:07.341Z,5.87
2019-02-28T13:09:36.060Z,7.10
2019-02-28T13:12:08.042Z,6.93
2019-02-28T13:14:36.862Z,6.93
2019-02-28T13:17:05.704Z,7.17
2019-02-28T13:19:34.507Z,6.93
2019-02-28T13:22:03.166Z,6.37
2019-02-28T13:24:31.972Z,7.83
2019-02-28T13:27:00.659Z,6.50
2019-02-28T13:29:32.553Z,7.03
2019-02-28T13:32:01.349Z,6.17
2019-02-28T13:34:30.227Z,6.40
2019-02-28T13:37:02.882Z,6.57
2019-02-28T13:39:31.651Z,7.30
2019-02-28T13:42:02.977Z,7.80
2019-02-28T13:44:31.599Z,6.97
2019-02-28T13:47:00.723Z,7.23
2019-02-28T13:49:29.506Z,6.17
2019-02-28T13:51:58.197Z,7.40
2019-02-28T13:54:27.028Z,8.17
2019-02-28T13:56:55.742Z,6.70
2019-02-28T13:59:24.458Z,7.63
2019-02-28T14:04:27.876Z,7.23
2019-02-28T14:06:56.825Z,6.13
2019-02-28T14:09:26.848Z,6.70
2019-02-28T14:11:55.610Z,7.70
2019-02-28T14:14:24.354Z,7.27
2019-02-28T14:16:53.040Z,7.90
2019-02-28T14:19:21.777Z,7.20
2019-02-28T14:21:50.561Z,6.43
2019-02-28T14:24:19.266Z,7.53
2019-02-28T14:26:49.520Z,6.30
2019-02-28T14:29:18.926Z,7.23
2019-02-28T14:31:47.642Z,7.50
2019-02-28T14:34:16.289Z,7.87
2019-02-28T14:36:45.239Z,7.97
2019-02-28T14:39:15.521Z,7.90
2019-02-28T14:41:44.206Z,7.53
2019-02-28T14:44:13.034Z,6.67
2019-02-28T14:46:41.826Z,8.00
2019-02-28T14:49:12.567Z,6.50
2019-02-28T14:51:40.982Z,7.10
2019-02-28T14:54:09.665Z,6.87
2019-02-28T14:56:39.594Z,6.23
2019-02-28T14:59:08.784Z,6.53
2019-02-28T15:01:37.604Z,7.07
2019-02-28T15:04:07.821Z,6.30
2019-02-28T15:06:36.820Z,6.77
2019-02-28T15:09:45.343Z,6.27
2019-02-28T15:12:14.029Z,6.87
2019-02-28T15:14:43.233Z,6.30
2019-02-28T15:17:32.582Z,6.60
2019-02-28T15:20:01.321Z,5.87
2019-02-28T15:22:30.078Z,6.63
2019-02-28T15:24:58.830Z,6.03
2019-02-28T15:27:27.614Z,7.33
2019-02-28T15:29:58.877Z,5.80
2019-02-28T15:32:26.590Z,5.73
2019-02-28T15:34:55.289Z,6.20
2019-02-28T15:37:23.990Z,7.40
2019-02-28T15:39:52.726Z,6.10
2019-02-28T15:42:43.004Z,6.50
2019-02-28T15:45:50.902Z,6.50
2019-02-28T15:48:19.545Z,6.97
2019-02-28T15:50:51.195Z,6.10
2019-02-28T15:53:18.613Z,5.97
2019-02-28T15:55:47.589Z,6.00
2019-02-28T15:58:16.745Z,5.90
2019-02-28T16:00:46.754Z,7.23
2019-02-28T16:03:16.645Z,6.57
2019-02-28T16:05:45.810Z,6.53
2019-02-28T16:08:14.495Z,6.67
2019-02-28T16:10:52.953Z,6.43
2019-02-28T16:13:13.686Z,7.00
2019-02-28T16:15:43.232Z,7.30
2019-02-28T16:18:12.886Z,6.70
2019-02-28T16:23:31.066Z,10.23
2019-02-28T16:25:59.780Z,9.20
2019-02-28T16:28:28.561Z,11.17
2019-02-28T16:30:57.236Z,8.30
2019-02-28T16:33:45.162Z,13.67
2019-02-28T16:36:13.724Z,12.07
2019-02-28T16:38:45.047Z,10.30
2019-02-28T16:41:14.500Z,8.33
2019-02-28T16:43:43.278Z,8.17
2019-02-28T16:46:19.282Z,11.57
2019-02-28T16:48:48.116Z,9.50
2019-02-28T16:51:16.899Z,10.47
2019-02-28T16:53:48.003Z,11.30
2019-02-28T16:56:16.109Z,8.83
2019-02-28T16:58:44.913Z,8.40
2019-02-28T17:01:13.686Z,11.57
2019-02-28T17:03:42.792Z,10.83
2019-02-28T17:06:12.859Z,9.87
2019-02-28T17:11:21.191Z,9.47
2019-02-28T17:19:14.442Z,10.73
2019-02-28T17:24:30.732Z,11.50
2019-02-28T17:35:03.550Z,8.87
2019-02-28T17:37:32.295Z,9.47
2019-02-28T17:40:01.052Z,7.73
2019-02-28T17:42:29.786Z,10.43
2019-02-28T17:45:38.305Z,9.50
2019-02-28T17:48:48.434Z,8.17
2019-02-28T17:51:58.546Z,8.63
2019-02-28T17:55:05.928Z,8.40
2019-02-28T17:58:14.381Z,7.40
2019-02-28T18:01:25.404Z,8.27
2019-02-28T18:04:31.864Z,8.07
2019-02-28T18:07:40.342Z,7.27
2019-02-28T18:10:47.554Z,6.80
2019-02-28T18:13:55.427Z,6.60
2019-02-28T18:17:04.724Z,7.27
2019-02-28T18:20:13.298Z,6.63
2019-02-28T18:23:21.211Z,6.63
2019-02-28T18:26:38.712Z,8.23
2019-02-28T18:29:40.000Z,8.10
2019-02-28T18:32:08.772Z,7.67
2019-02-28T18:35:17.273Z,8.50
2019-02-28T18:38:25.768Z,8.63
2019-02-28T18:40:54.504Z,7.47
2019-02-28T18:43:23.934Z,8.83
2019-02-28T18:45:56.925Z,8.57
2019-02-28T18:48:24.349Z,9.37
2019-02-28T18:50:53.087Z,8.73
2019-02-28T18:53:21.947Z,7.37
2019-02-28T18:55:50.880Z,5.40
2019-02-28T18:58:19.609Z,10.40
2019-02-28T19:01:07.746Z,7.43
2019-02-28T19:03:36.560Z,8.93
2019-02-28T19:06:05.411Z,8.50
2019-02-28T19:08:34.256Z,8.57
2019-02-28T19:11:02.970Z,7.00
2019-02-28T19:13:31.855Z,7.63
2019-02-28T19:16:00.600Z,8.47
2019-02-28T19:18:29.507Z,8.00
2019-02-28T19:20:58.288Z,6.20
2019-02-28T19:23:27.027Z,7.10
2019-02-28T19:25:55.702Z,6.43
2019-02-28T19:28:24.614Z,5.93
2019-02-28T19:30:53.446Z,5.60
2019-02-28T19:33:22.174Z,6.50
2019-02-28T19:35:50.964Z,6.07
2019-02-28T19:38:19.902Z,4.60
2019-02-28T19:41:07.797Z,4.90
2019-02-28T19:43:36.722Z,6.03
2019-02-28T19:46:05.498Z,3.93
2019-02-28T19:51:17.492Z,4.87
2019-02-28T19:53:46.328Z,4.73
2019-02-28T19:56:15.263Z,4.90
2019-02-28T19:58:44.035Z,4.73
2019-02-28T20:01:19.077Z,4.53
2019-02-28T20:03:44.250Z,4.50
2019-02-28T20:06:13.294Z,4.03
2019-02-28T20:08:42.724Z,3.70
2019-02-28T20:11:11.627Z,4.00
2019-02-28T20:13:40.383Z,3.20
2019-02-28T20:16:09.290Z,3.50
2019-02-28T20:18:38.287Z,3.70
2019-02-28T20:23:46.884Z,3.40
2019-02-28T20:26:15.829Z,3.80
2019-02-28T20:28:44.642Z,3.90
2019-02-28T20:31:13.400Z,3.00
2019-02-28T20:34:01.370Z,3.03
2019-02-28T20:39:38.438Z,2.83
2019-02-28T20:42:07.378Z,3.00
2019-02-28T20:44:55.499Z,3.13
2019-02-28T20:47:24.342Z,3.43
2019-02-28T20:49:53.701Z,3.87
2019-02-28T20:52:22.640Z,4.10
2019-02-28T20:57:50.502Z,2.87
2019-02-28T21:03:08.547Z,2.67
2019-02-28T21:05:56.578Z,3.20
2019-02-28T21:11:19.678Z,3.07
2019-02-28T21:13:48.407Z,2.70
2019-02-28T21:16:17.155Z,3.70
2019-02-28T21:18:45.968Z,2.60
2019-02-28T21:21:14.701Z,3.17
2019-02-28T21:23:43.402Z,2.87
2019-02-28T21:28:51.788Z,2.50
2019-02-28T21:31:20.567Z,3.13
2019-02-28T21:33:49.353Z,3.10
2019-02-28T21:36:18.089Z,3.00
2019-02-28T21:38:46.828Z,3.47
2019-02-28T21:41:35.021Z,2.97
2019-02-28T21:44:22.979Z,4.47
2019-02-28T21:47:11.090Z,3.40
2019-02-28T21:49:39.942Z,2.70
2019-02-28T21:54:56.560Z,2.93
2019-02-28T21:57:25.337Z,2.63
2019-02-28T22:00:13.384Z,3.23
2019-02-28T22:02:42.251Z,3.30
2019-02-28T22:05:50.820Z,3.73
2019-02-28T22:08:19.821Z,3.10
2019-02-28T22:10:48.610Z,2.83
2019-02-28T22:13:17.188Z,3.20
2019-02-28T22:15:46.561Z,2.73
2019-02-28T22:18:15.334Z,4.60
2019-02-28T22:20:44.216Z,3.10
2019-02-28T22:23:13.008Z,2.33
2019-02-28T22:25:41.672Z,2.60
2019-02-28T22:28:29.593Z,2.30
2019-02-28T22:31:36.603Z,2.77
2019-02-28T22:34:24.376Z,2.30
2019-02-28T22:37:13.881Z,2.65
2019-02-28T22:39:42.561Z,2.57
2019-02-28T22:42:30.546Z,3.03
2019-02-28T22:44:59.215Z,2.70
2019-02-28T22:47:47.193Z,2.60
2019-02-28T22:50:15.858Z,2.33
2019-02-28T22:55:39.389Z,2.00
2019-02-28T22:58:47.909Z,2.57
2019-02-28T23:01:37.222Z,2.17
2019-02-28T23:04:25.138Z,2.60
2019-02-28T23:09:28.151Z,2.70
2019-02-28T23:11:57.304Z,2.43
2019-02-28T23:14:26.058Z,2.30
2019-02-28T23:16:54.832Z,2.10
2019-02-28T23:19:23.468Z,2.10
2019-02-28T23:22:11.351Z,2.10
2019-02-28T23:27:27.679Z,2.03
2019-02-28T23:30:36.195Z,2.00
2019-02-28T23:33:44.613Z,1.70
2019-02-28T23:36:32.565Z,2.07
2019-02-28T23:39:01.268Z,2.40
2019-02-28T23:41:29.888Z,1.80
2019-02-28T23:43:58.593Z,2.40
2019-02-28T23:46:27.307Z,1.90
2019-02-28T23:49:15.141Z,1.90
2019-02-28T23:51:43.788Z,2.30
2019-02-28T23:54:12.416Z,1.93
2019-02-28T23:57:00.363Z,1.50
2019-02-28T23:59:29.052Z,1.70
